sensor_id;sensor_type;location;lat;lon;timestamp;pressure;altitude;pressure_sealevel;temperature;humidity
55470;BME280;41334;47.872;16.384;2022-07-05T00:02:35;98998.22;;;16.14;79.93
55470;BME280;41334;47.872;16.384;2022-07-05T00:05:37;99014.44;;;16.14;79.32
55470;BME280;41334;47.872;16.384;2022-07-05T00:08:39;99014.94;;;16.11;79.34
55470;BME280;41334;47.872;16.384;2022-07-05T00:11:41;98998.81;;;16.04;80.25
55470;BME280;41334;47.872;16.384;2022-07-05T00:14:44;98998.69;;;15.99;80.04
55470;BME280;41334;47.872;16.384;2022-07-05T00:17:46;98987.31;;;15.97;80.38
55470;BME280;41334;47.872;16.384;2022-07-05T00:20:48;98987.75;;;15.94;79.95
55470;BME280;41334;47.872;16.384;2022-07-05T00:23:50;98986.94;;;15.94;80.28
55470;BME280;41334;47.872;16.384;2022-07-05T00:26:52;98984.47;;;15.92;80.77
55470;BME280;41334;47.872;16.384;2022-07-05T00:29:54;98982.84;;;15.91;79.90
55470;BME280;41334;47.872;16.384;2022-07-05T00:32:56;98983.03;;;15.90;80.21
55470;BME280;41334;47.872;16.384;2022-07-05T00:35:57;98992.09;;;15.84;80.54
55470;BME280;41334;47.872;16.384;2022-07-05T00:39:00;98992.34;;;15.82;80.26
55470;BME280;41334;47.872;16.384;2022-07-05T00:42:02;98986.13;;;15.82;79.71
55470;BME280;41334;47.872;16.384;2022-07-05T00:45:06;98989.88;;;15.81;78.61
55470;BME280;41334;47.872;16.384;2022-07-05T00:48:08;98987.75;;;15.83;77.90
55470;BME280;41334;47.872;16.384;2022-07-05T00:51:10;98990.19;;;15.72;78.33
55470;BME280;41334;47.872;16.384;2022-07-05T00:54:12;98991.84;;;15.73;78.24
55470;BME280;41334;47.872;16.384;2022-07-05T00:57:14;99000.31;;;15.77;78.02
55470;BME280;41334;47.872;16.384;2022-07-05T01:00:16;99002.44;;;15.75;77.11
55470;BME280;41334;47.872;16.384;2022-07-05T01:03:19;98998.44;;;15.77;77.26
55470;BME280;41334;47.872;16.384;2022-07-05T01:06:21;99009.25;;;15.77;76.83
55470;BME280;41334;47.872;16.384;2022-07-05T01:09:23;99011.25;;;15.82;77.20
55470;BME280;41334;47.872;16.384;2022-07-05T01:12:25;99021.59;;;15.85;77.59
55470;BME280;41334;47.872;16.384;2022-07-05T01:15:27;99035.56;;;15.82;78.01
55470;BME280;41334;47.872;16.384;2022-07-05T01:18:29;99023.00;;;15.76;79.07
55470;BME280;41334;47.872;16.384;2022-07-05T01:21:38;99031.34;;;15.74;79.27
55470;BME280;41334;47.872;16.384;2022-07-05T01:24:40;99031.44;;;15.80;79.64
55470;BME280;41334;47.872;16.384;2022-07-05T01:27:43;99024.41;;;15.78;79.15
55470;BME280;41334;47.872;16.384;2022-07-05T01:30:46;99018.41;;;15.76;79.53
55470;BME280;41334;47.872;16.384;2022-07-05T01:33:48;99028.50;;;15.69;80.02
55470;BME280;41334;47.872;16.384;2022-07-05T01:36:50;99025.59;;;15.83;79.44
55470;BME280;41334;47.872;16.384;2022-07-05T01:39:52;99022.44;;;15.86;78.73
55470;BME280;41334;47.872;16.384;2022-07-05T01:42:55;99029.22;;;15.88;78.00
55470;BME280;41334;47.872;16.384;2022-07-05T01:45:58;99028.16;;;15.89;77.79
55470;BME280;41334;47.872;16.384;2022-07-05T01:49:04;99027.84;;;15.86;78.15
55470;BME280;41334;47.872;16.384;2022-07-05T01:52:09;99021.38;;;15.87;77.04
55470;BME280;41334;47.872;16.384;2022-07-05T01:55:12;99015.34;;;15.85;76.57
55470;BME280;41334;47.872;16.384;2022-07-05T01:58:14;99011.81;;;15.84;76.15
55470;BME280;41334;47.872;16.384;2022-07-05T02:01:31;99012.53;;;15.80;76.78
55470;BME280;41334;47.872;16.384;2022-07-05T02:04:35;99003.84;;;15.77;77.52
55470;BME280;41334;47.872;16.384;2022-07-05T02:07:49;99002.66;;;15.73;77.72
55470;BME280;41334;47.872;16.384;2022-07-05T02:10:51;98997.94;;;15.69;77.70
55470;BME280;41334;47.872;16.384;2022-07-05T02:13:53;99003.34;;;15.69;78.06
55470;BME280;41334;47.872;16.384;2022-07-05T02:16:56;99005.84;;;15.70;77.28
55470;BME280;41334;47.872;16.384;2022-07-05T02:19:59;99009.13;;;15.72;77.38
55470;BME280;41334;47.872;16.384;2022-07-05T02:23:02;99009.13;;;15.72;76.37
55470;BME280;41334;47.872;16.384;2022-07-05T02:26:05;99014.75;;;15.71;77.41
55470;BME280;41334;47.872;16.384;2022-07-05T02:29:08;99018.72;;;15.68;77.22
55470;BME280;41334;47.872;16.384;2022-07-05T02:32:11;99018.72;;;15.68;78.36
55470;BME280;41334;47.872;16.384;2022-07-05T02:35:14;99025.19;;;15.67;78.65
55470;BME280;41334;47.872;16.384;2022-07-05T02:38:16;99022.03;;;15.70;78.29
55470;BME280;41334;47.872;16.384;2022-07-05T02:41:18;99029.66;;;15.73;78.13
55470;BME280;41334;47.872;16.384;2022-07-05T02:44:23;99027.78;;;15.74;77.90
55470;BME280;41334;47.872;16.384;2022-07-05T02:47:29;99013.00;;;15.76;77.20
55470;BME280;41334;47.872;16.384;2022-07-05T02:50:32;99026.28;;;15.78;75.68
55470;BME280;41334;47.872;16.384;2022-07-05T02:53:35;99025.31;;;15.72;77.14
55470;BME280;41334;47.872;16.384;2022-07-05T02:56:40;99024.81;;;15.64;77.81
55470;BME280;41334;47.872;16.384;2022-07-05T02:59:44;99030.59;;;15.67;78.09
55470;BME280;41334;47.872;16.384;2022-07-05T03:02:46;99038.84;;;15.72;78.38
55470;BME280;41334;47.872;16.384;2022-07-05T03:05:49;99042.16;;;15.74;78.51
55470;BME280;41334;47.872;16.384;2022-07-05T03:08:51;99046.81;;;15.67;79.10
55470;BME280;41334;47.872;16.384;2022-07-05T03:11:53;99068.81;;;15.71;79.58
55470;BME280;41334;47.872;16.384;2022-07-05T03:14:55;99061.97;;;15.68;79.29
55470;BME280;41334;47.872;16.384;2022-07-05T03:17:57;99066.59;;;15.49;79.93
55470;BME280;41334;47.872;16.384;2022-07-05T03:21:03;99059.59;;;15.42;79.80
55470;BME280;41334;47.872;16.384;2022-07-05T03:24:07;99057.19;;;15.52;79.51
55470;BME280;41334;47.872;16.384;2022-07-05T03:27:10;99050.03;;;15.58;79.55
55470;BME280;41334;47.872;16.384;2022-07-05T03:30:23;99052.09;;;15.62;79.97
55470;BME280;41334;47.872;16.384;2022-07-05T03:33:25;99060.03;;;15.57;80.38
55470;BME280;41334;47.872;16.384;2022-07-05T03:36:32;99054.78;;;15.62;80.02
55470;BME280;41334;47.872;16.384;2022-07-05T03:39:38;99058.22;;;15.69;79.61
55470;BME280;41334;47.872;16.384;2022-07-05T03:42:41;99062.22;;;15.78;78.34
55470;BME280;41334;47.872;16.384;2022-07-05T03:45:43;99065.44;;;15.87;78.37
55470;BME280;41334;47.872;16.384;2022-07-05T03:48:45;99067.31;;;15.87;78.89
55470;BME280;41334;47.872;16.384;2022-07-05T03:51:51;99065.66;;;15.86;79.13
55470;BME280;41334;47.872;16.384;2022-07-05T03:54:53;99056.03;;;15.90;78.91
55470;BME280;41334;47.872;16.384;2022-07-05T03:57:55;99055.56;;;15.93;78.52
55470;BME280;41334;47.872;16.384;2022-07-05T04:00:57;99053.81;;;15.98;76.89
55470;BME280;41334;47.872;16.384;2022-07-05T04:04:03;99054.63;;;15.99;76.85
55470;BME280;41334;47.872;16.384;2022-07-05T04:07:06;99050.41;;;16.03;75.43
55470;BME280;41334;47.872;16.384;2022-07-05T04:10:10;99057.47;;;16.04;75.96
55470;BME280;41334;47.872;16.384;2022-07-05T04:13:11;99063.94;;;16.03;75.55
55470;BME280;41334;47.872;16.384;2022-07-05T04:16:13;99053.13;;;16.03;74.39
55470;BME280;41334;47.872;16.384;2022-07-05T04:19:15;99071.34;;;15.96;75.74
55470;BME280;41334;47.872;16.384;2022-07-05T04:22:18;99068.03;;;15.94;75.68
55470;BME280;41334;47.872;16.384;2022-07-05T04:25:20;99076.94;;;15.94;75.49
55470;BME280;41334;47.872;16.384;2022-07-05T04:28:30;99073.34;;;16.00;76.00
55470;BME280;41334;47.872;16.384;2022-07-05T04:31:34;99079.34;;;16.02;76.50
55470;BME280;41334;47.872;16.384;2022-07-05T04:34:38;99085.31;;;16.04;76.01
55470;BME280;41334;47.872;16.384;2022-07-05T04:37:42;99091.66;;;16.10;74.70
55470;BME280;41334;47.872;16.384;2022-07-05T04:40:45;99084.28;;;16.06;74.29
55470;BME280;41334;47.872;16.384;2022-07-05T04:43:47;99082.16;;;15.96;76.05
55470;BME280;41334;47.872;16.384;2022-07-05T04:46:50;99089.06;;;15.92;75.42
55470;BME280;41334;47.872;16.384;2022-07-05T04:49:53;99102.94;;;15.95;76.14
55470;BME280;41334;47.872;16.384;2022-07-05T04:52:55;99099.88;;;15.92;76.31
55470;BME280;41334;47.872;16.384;2022-07-05T04:55:57;99108.25;;;16.02;76.44
55470;BME280;41334;47.872;16.384;2022-07-05T04:58:59;99120.34;;;15.99;76.64
55470;BME280;41334;47.872;16.384;2022-07-05T05:02:04;99121.06;;;16.07;77.29
55470;BME280;41334;47.872;16.384;2022-07-05T05:05:07;99126.59;;;16.12;77.54
55470;BME280;41334;47.872;16.384;2022-07-05T05:08:09;99123.91;;;16.12;78.26
55470;BME280;41334;47.872;16.384;2022-07-05T05:11:11;99126.38;;;16.13;78.63
55470;BME280;41334;47.872;16.384;2022-07-05T05:14:13;99131.78;;;16.13;79.00
55470;BME280;41334;47.872;16.384;2022-07-05T05:17:15;99137.88;;;16.09;78.67
55470;BME280;41334;47.872;16.384;2022-07-05T05:20:18;99125.91;;;16.16;78.52
55470;BME280;41334;47.872;16.384;2022-07-05T05:23:23;99124.50;;;16.25;79.16
55470;BME280;41334;47.872;16.384;2022-07-05T05:26:25;99121.34;;;16.28;77.71
55470;BME280;41334;47.872;16.384;2022-07-05T05:29:27;99126.88;;;16.34;77.55
55470;BME280;41334;47.872;16.384;2022-07-05T05:32:29;99124.66;;;16.42;77.02
55470;BME280;41334;47.872;16.384;2022-07-05T05:35:31;99135.81;;;16.46;76.78
55470;BME280;41334;47.872;16.384;2022-07-05T05:38:33;99146.34;;;16.54;76.93
55470;BME280;41334;47.872;16.384;2022-07-05T05:41:34;99139.75;;;16.62;77.88
55470;BME280;41334;47.872;16.384;2022-07-05T05:44:37;99149.16;;;16.59;78.32
55470;BME280;41334;47.872;16.384;2022-07-05T05:47:46;99146.09;;;16.67;78.17
55470;BME280;41334;47.872;16.384;2022-07-05T05:50:48;99145.19;;;16.73;78.24
55470;BME280;41334;47.872;16.384;2022-07-05T05:53:50;99139.53;;;16.75;78.17
55470;BME280;41334;47.872;16.384;2022-07-05T05:56:52;99142.22;;;16.63;77.87
55470;BME280;41334;47.872;16.384;2022-07-05T05:59:54;99134.13;;;16.63;77.74
55470;BME280;41334;47.872;16.384;2022-07-05T06:02:56;99135.19;;;16.74;77.11
55470;BME280;41334;47.872;16.384;2022-07-05T06:05:58;99132.91;;;16.83;77.48
55470;BME280;41334;47.872;16.384;2022-07-05T06:09:00;99144.09;;;16.98;76.90
55470;BME280;41334;47.872;16.384;2022-07-05T06:12:02;99140.66;;;17.02;76.47
55470;BME280;41334;47.872;16.384;2022-07-05T06:15:04;99146.22;;;17.19;75.67
55470;BME280;41334;47.872;16.384;2022-07-05T06:18:08;99145.97;;;17.32;75.40
55470;BME280;41334;47.872;16.384;2022-07-05T06:21:10;99147.03;;;17.31;74.79
55470;BME280;41334;47.872;16.384;2022-07-05T06:24:12;99156.53;;;17.46;73.80
55470;BME280;41334;47.872;16.384;2022-07-05T06:27:14;99145.31;;;17.54;74.23
55470;BME280;41334;47.872;16.384;2022-07-05T06:30:17;99153.63;;;17.64;73.67
55470;BME280;41334;47.872;16.384;2022-07-05T06:33:20;99151.72;;;17.76;73.17
55470;BME280;41334;47.872;16.384;2022-07-05T06:36:22;99154.03;;;17.84;73.43
55470;BME280;41334;47.872;16.384;2022-07-05T06:39:24;99148.25;;;17.81;73.25
55470;BME280;41334;47.872;16.384;2022-07-05T06:42:25;99141.16;;;17.92;73.49
55470;BME280;41334;47.872;16.384;2022-07-05T06:45:28;99147.81;;;18.01;73.22
55470;BME280;41334;47.872;16.384;2022-07-05T06:48:30;99143.44;;;18.12;72.97
55470;BME280;41334;47.872;16.384;2022-07-05T06:51:32;99144.59;;;18.16;73.56
55470;BME280;41334;47.872;16.384;2022-07-05T06:54:34;99145.19;;;18.34;72.91
55470;BME280;41334;47.872;16.384;2022-07-05T06:58:17;99153.63;;;18.21;72.70
55470;BME280;41334;47.872;16.384;2022-07-05T07:01:19;99158.50;;;18.53;71.90
55470;BME280;41334;47.872;16.384;2022-07-05T07:04:23;99146.91;;;18.41;71.35
55470;BME280;41334;47.872;16.384;2022-07-05T07:07:34;99148.06;;;18.61;71.09
55470;BME280;41334;47.872;16.384;2022-07-05T07:10:54;99152.66;;;18.78;69.58
55470;BME280;41334;47.872;16.384;2022-07-05T07:13:56;99153.25;;;18.80;69.82
55470;BME280;41334;47.872;16.384;2022-07-05T07:16:58;99150.19;;;18.93;69.46
55470;BME280;41334;47.872;16.384;2022-07-05T07:20:00;99146.72;;;18.98;68.60
55470;BME280;41334;47.872;16.384;2022-07-05T07:23:02;99148.91;;;19.18;67.60
55470;BME280;41334;47.872;16.384;2022-07-05T07:26:04;99152.56;;;19.06;69.13
55470;BME280;41334;47.872;16.384;2022-07-05T07:29:06;99150.00;;;19.00;69.47
55470;BME280;41334;47.872;16.384;2022-07-05T07:32:09;99150.25;;;18.98;68.74
55470;BME280;41334;47.872;16.384;2022-07-05T07:35:11;99141.56;;;18.62;69.81
55470;BME280;41334;47.872;16.384;2022-07-05T07:38:13;99149.03;;;18.89;68.45
55470;BME280;41334;47.872;16.384;2022-07-05T07:41:15;99155.78;;;18.86;70.14
55470;BME280;41334;47.872;16.384;2022-07-05T07:44:17;99147.88;;;19.02;69.81
55470;BME280;41334;47.872;16.384;2022-07-05T07:47:19;99149.59;;;19.30;68.60
55470;BME280;41334;47.872;16.384;2022-07-05T07:50:21;99153.31;;;19.02;68.19
55470;BME280;41334;47.872;16.384;2022-07-05T07:53:22;99152.34;;;18.41;68.05
55470;BME280;41334;47.872;16.384;2022-07-05T07:56:25;99150.03;;;18.32;68.54
55470;BME280;41334;47.872;16.384;2022-07-05T07:59:27;99155.88;;;18.24;68.98
55470;BME280;41334;47.872;16.384;2022-07-05T08:02:29;99154.56;;;18.60;68.05
55470;BME280;41334;47.872;16.384;2022-07-05T08:05:30;99149.97;;;18.44;68.85
55470;BME280;41334;47.872;16.384;2022-07-05T08:08:32;99164.50;;;18.38;69.41
55470;BME280;41334;47.872;16.384;2022-07-05T08:11:34;99158.41;;;18.48;69.06
55470;BME280;41334;47.872;16.384;2022-07-05T08:14:36;99156.53;;;18.48;68.34
55470;BME280;41334;47.872;16.384;2022-07-05T08:17:38;99160.06;;;18.66;68.41
55470;BME280;41334;47.872;16.384;2022-07-05T08:21:01;99156.94;;;18.74;68.72
55470;BME280;41334;47.872;16.384;2022-07-05T08:24:22;99164.06;;;19.13;67.55
55470;BME280;41334;47.872;16.384;2022-07-05T08:27:24;99163.84;;;18.81;68.01
55470;BME280;41334;47.872;16.384;2022-07-05T08:30:26;99163.69;;;18.71;66.79
55470;BME280;41334;47.872;16.384;2022-07-05T08:33:28;99163.16;;;19.08;67.86
55470;BME280;41334;47.872;16.384;2022-07-05T08:36:30;99165.00;;;19.24;65.72
55470;BME280;41334;47.872;16.384;2022-07-05T08:39:32;99168.38;;;19.53;65.46
55470;BME280;41334;47.872;16.384;2022-07-05T08:42:37;99175.47;;;19.54;65.18
55470;BME280;41334;47.872;16.384;2022-07-05T08:45:45;99172.88;;;19.43;62.54
55470;BME280;41334;47.872;16.384;2022-07-05T08:48:49;99177.56;;;19.69;62.34
55470;BME280;41334;47.872;16.384;2022-07-05T08:51:52;99175.19;;;19.73;61.59
55470;BME280;41334;47.872;16.384;2022-07-05T08:54:57;99178.06;;;19.44;61.69
55470;BME280;41334;47.872;16.384;2022-07-05T08:58:00;99186.78;;;19.07;62.50
55470;BME280;41334;47.872;16.384;2022-07-05T09:01:02;99176.81;;;19.13;62.70
55470;BME280;41334;47.872;16.384;2022-07-05T09:04:07;99186.66;;;18.80;63.07
55470;BME280;41334;47.872;16.384;2022-07-05T09:07:14;99184.00;;;18.85;64.19
55470;BME280;41334;47.872;16.384;2022-07-05T09:10:19;99188.34;;;18.53;63.82
55470;BME280;41334;47.872;16.384;2022-07-05T09:13:23;99195.94;;;18.51;63.90
55470;BME280;41334;47.872;16.384;2022-07-05T09:16:25;99193.69;;;18.48;64.03
55470;BME280;41334;47.872;16.384;2022-07-05T09:19:27;99192.31;;;18.45;64.17
55470;BME280;41334;47.872;16.384;2022-07-05T09:22:44;99182.28;;;18.46;63.33
55470;BME280;41334;47.872;16.384;2022-07-05T09:25:47;99186.91;;;18.96;63.15
55470;BME280;41334;47.872;16.384;2022-07-05T09:28:56;99181.63;;;19.06;63.21
55470;BME280;41334;47.872;16.384;2022-07-05T09:31:58;99185.47;;;19.10;61.75
55470;BME280;41334;47.872;16.384;2022-07-05T09:35:19;99192.84;;;19.53;60.64
55470;BME280;41334;47.872;16.384;2022-07-05T09:38:22;99195.47;;;20.14;59.49
55470;BME280;41334;47.872;16.384;2022-07-05T09:41:24;99188.28;;;20.30;58.91
55470;BME280;41334;47.872;16.384;2022-07-05T09:44:25;99189.56;;;20.22;57.89
55470;BME280;41334;47.872;16.384;2022-07-05T09:47:28;99188.22;;;20.52;56.74
55470;BME280;41334;47.872;16.384;2022-07-05T09:50:35;99195.16;;;20.10;56.23
55470;BME280;41334;47.872;16.384;2022-07-05T09:53:57;99189.78;;;19.88;57.49
55470;BME280;41334;47.872;16.384;2022-07-05T09:57:03;99195.00;;;19.95;56.71
55470;BME280;41334;47.872;16.384;2022-07-05T10:00:10;99190.22;;;20.07;57.14
55470;BME280;41334;47.872;16.384;2022-07-05T10:03:12;99188.31;;;20.62;56.02
55470;BME280;41334;47.872;16.384;2022-07-05T10:06:14;99197.72;;;20.22;55.90
55470;BME280;41334;47.872;16.384;2022-07-05T10:09:17;99198.50;;;20.17;55.33
55470;BME280;41334;47.872;16.384;2022-07-05T10:12:19;99192.84;;;19.97;56.24
55470;BME280;41334;47.872;16.384;2022-07-05T10:15:26;99202.22;;;20.65;54.69
55470;BME280;41334;47.872;16.384;2022-07-05T10:18:28;99210.13;;;20.13;55.16
55470;BME280;41334;47.872;16.384;2022-07-05T10:21:33;99197.41;;;20.18;55.53
55470;BME280;41334;47.872;16.384;2022-07-05T10:24:55;99205.97;;;19.61;56.52
55470;BME280;41334;47.872;16.384;2022-07-05T10:28:03;99193.75;;;19.20;57.06
55470;BME280;41334;47.872;16.384;2022-07-05T10:31:06;99192.50;;;19.88;56.80
55470;BME280;41334;47.872;16.384;2022-07-05T10:34:10;99197.97;;;19.50;56.90
55470;BME280;41334;47.872;16.384;2022-07-05T10:37:34;99188.50;;;19.52;56.52
55470;BME280;41334;47.872;16.384;2022-07-05T10:40:36;99201.38;;;19.62;55.89
55470;BME280;41334;47.872;16.384;2022-07-05T10:43:39;99202.66;;;19.76;56.25
55470;BME280;41334;47.872;16.384;2022-07-05T10:46:41;99187.28;;;19.87;55.66
55470;BME280;41334;47.872;16.384;2022-07-05T10:50:00;99197.81;;;20.32;55.00
55470;BME280;41334;47.872;16.384;2022-07-05T10:53:02;99191.16;;;19.69;55.66
55470;BME280;41334;47.872;16.384;2022-07-05T10:59:09;99198.69;;;19.23;57.50
55470;BME280;41334;47.872;16.384;2022-07-05T11:02:14;99201.50;;;19.28;57.72
55470;BME280;41334;47.872;16.384;2022-07-05T11:05:16;99206.78;;;19.18;57.61
55470;BME280;41334;47.872;16.384;2022-07-05T11:08:18;99194.09;;;19.24;57.80
55470;BME280;41334;47.872;16.384;2022-07-05T11:11:24;99203.44;;;19.11;58.17
55470;BME280;41334;47.872;16.384;2022-07-05T11:17:27;99191.44;;;19.68;57.52
55470;BME280;41334;47.872;16.384;2022-07-05T11:21:18;99187.38;;;19.70;56.62
55470;BME280;41334;47.872;16.384;2022-07-05T11:24:40;99196.44;;;20.03;56.89
55470;BME280;41334;47.872;16.384;2022-07-05T11:31:07;99203.81;;;20.34;55.52
55470;BME280;41334;47.872;16.384;2022-07-05T11:34:13;99196.84;;;19.89;54.63
55470;BME280;41334;47.872;16.384;2022-07-05T11:40:46;99188.44;;;20.18;54.74
55470;BME280;41334;47.872;16.384;2022-07-05T11:43:55;99185.25;;;20.26;55.03
55470;BME280;41334;47.872;16.384;2022-07-05T11:46:59;99190.59;;;20.16;55.44
55470;BME280;41334;47.872;16.384;2022-07-05T11:50:09;99192.28;;;19.95;55.23
55470;BME280;41334;47.872;16.384;2022-07-05T11:53:11;99200.72;;;19.94;55.54
55470;BME280;41334;47.872;16.384;2022-07-05T11:56:14;99193.25;;;19.23;56.08
55470;BME280;41334;47.872;16.384;2022-07-05T11:59:19;99194.47;;;19.32;56.64
55470;BME280;41334;47.872;16.384;2022-07-05T12:02:22;99194.09;;;19.24;57.17
55470;BME280;41334;47.872;16.384;2022-07-05T12:05:29;99195.56;;;19.31;57.33
55470;BME280;41334;47.872;16.384;2022-07-05T12:08:32;99187.72;;;19.57;56.72
55470;BME280;41334;47.872;16.384;2022-07-05T12:11:36;99174.09;;;19.74;56.39
55470;BME280;41334;47.872;16.384;2022-07-05T12:14:56;99183.28;;;19.68;56.97
55470;BME280;41334;47.872;16.384;2022-07-05T12:18:01;99175.69;;;19.97;56.31
55470;BME280;41334;47.872;16.384;2022-07-05T12:21:11;99169.44;;;20.23;55.20
55470;BME280;41334;47.872;16.384;2022-07-05T12:24:15;99176.81;;;20.55;54.83
55470;BME280;41334;47.872;16.384;2022-07-05T12:27:18;99180.63;;;20.27;54.77
55470;BME280;41334;47.872;16.384;2022-07-05T12:30:20;99180.38;;;20.55;54.11
55470;BME280;41334;47.872;16.384;2022-07-05T12:33:22;99179.50;;;20.23;55.33
55470;BME280;41334;47.872;16.384;2022-07-05T12:36:24;99173.50;;;20.48;54.91
55470;BME280;41334;47.872;16.384;2022-07-05T12:39:29;99173.34;;;19.78;55.87
55470;BME280;41334;47.872;16.384;2022-07-05T12:42:38;99184.94;;;19.52;56.96
55470;BME280;41334;47.872;16.384;2022-07-05T12:45:57;99183.28;;;19.68;56.66
55470;BME280;41334;47.872;16.384;2022-07-05T12:49:00;99188.59;;;19.40;58.10
55470;BME280;41334;47.872;16.384;2022-07-05T12:52:05;99177.28;;;19.49;57.79
55470;BME280;41334;47.872;16.384;2022-07-05T12:55:12;99184.16;;;19.34;57.57
55470;BME280;41334;47.872;16.384;2022-07-05T12:58:33;99175.63;;;19.26;57.12
55470;BME280;41334;47.872;16.384;2022-07-05T13:01:38;99185.06;;;19.62;56.25
55470;BME280;41334;47.872;16.384;2022-07-05T13:04:51;99177.97;;;19.61;56.03
55470;BME280;41334;47.872;16.384;2022-07-05T13:07:54;99187.88;;;19.67;56.40
55470;BME280;41334;47.872;16.384;2022-07-05T13:10:58;99173.06;;;19.58;56.21
55470;BME280;41334;47.872;16.384;2022-07-05T13:14:00;99183.75;;;19.43;55.55
55470;BME280;41334;47.872;16.384;2022-07-05T13:17:02;99178.38;;;19.91;54.90
55470;BME280;41334;47.872;16.384;2022-07-05T13:20:05;99174.00;;;20.17;53.77
55470;BME280;41334;47.872;16.384;2022-07-05T13:23:07;99160.75;;;20.95;52.73
55470;BME280;41334;47.872;16.384;2022-07-05T13:26:09;99162.56;;;21.17;51.24
55470;BME280;41334;47.872;16.384;2022-07-05T13:29:10;99159.16;;;21.00;51.61
55470;BME280;41334;47.872;16.384;2022-07-05T13:32:12;99156.94;;;21.39;50.18
55470;BME280;41334;47.872;16.384;2022-07-05T13:35:17;99151.44;;;21.91;49.21
55470;BME280;41334;47.872;16.384;2022-07-05T13:38:18;99144.91;;;22.18;47.84
55470;BME280;41334;47.872;16.384;2022-07-05T13:41:21;99147.91;;;22.06;47.29
55470;BME280;41334;47.872;16.384;2022-07-05T13:44:23;99149.16;;;21.73;48.26
55470;BME280;41334;47.872;16.384;2022-07-05T13:47:24;99145.88;;;21.66;48.46
55470;BME280;41334;47.872;16.384;2022-07-05T13:50:26;99138.38;;;22.24;46.93
55470;BME280;41334;47.872;16.384;2022-07-05T13:53:34;99145.75;;;22.39;46.51
55470;BME280;41334;47.872;16.384;2022-07-05T13:56:38;99144.34;;;21.90;46.39
55470;BME280;41334;47.872;16.384;2022-07-05T13:59:40;99159.03;;;21.84;45.75
55470;BME280;41334;47.872;16.384;2022-07-05T14:02:42;99152.69;;;21.73;46.59
55470;BME280;41334;47.872;16.384;2022-07-05T14:05:44;99149.97;;;21.73;46.94
55470;BME280;41334;47.872;16.384;2022-07-05T14:08:46;99143.78;;;21.93;45.10
55470;BME280;41334;47.872;16.384;2022-07-05T14:11:48;99164.16;;;21.70;45.85
55470;BME280;41334;47.872;16.384;2022-07-05T14:14:50;99148.50;;;22.44;45.55
55470;BME280;41334;47.872;16.384;2022-07-05T14:17:51;99158.56;;;22.94;44.09
55470;BME280;41334;47.872;16.384;2022-07-05T14:20:53;99160.75;;;22.06;45.37
55470;BME280;41334;47.872;16.384;2022-07-05T14:23:55;99158.78;;;21.81;45.89
55470;BME280;41334;47.872;16.384;2022-07-05T14:26:58;99160.91;;;21.16;47.51
55470;BME280;41334;47.872;16.384;2022-07-05T14:30:00;99166.09;;;21.12;47.59
55470;BME280;41334;47.872;16.384;2022-07-05T14:33:02;99156.72;;;20.98;47.86
55470;BME280;41334;47.872;16.384;2022-07-05T14:36:04;99165.09;;;20.86;48.62
55470;BME280;41334;47.872;16.384;2022-07-05T14:39:06;99159.50;;;20.66;49.34
55470;BME280;41334;47.872;16.384;2022-07-05T14:42:08;99143.69;;;20.68;48.90
55470;BME280;41334;47.872;16.384;2022-07-05T14:45:10;99158.94;;;20.69;49.42
55470;BME280;41334;47.872;16.384;2022-07-05T14:48:12;99150.47;;;21.03;48.81
55470;BME280;41334;47.872;16.384;2022-07-05T14:51:14;99142.50;;;20.96;48.36
55470;BME280;41334;47.872;16.384;2022-07-05T14:54:16;99150.47;;;21.03;47.79
55470;BME280;41334;47.872;16.384;2022-07-05T14:57:18;99144.91;;;20.82;48.52
55470;BME280;41334;47.872;16.384;2022-07-05T15:00:20;99139.31;;;21.04;48.12
55470;BME280;41334;47.872;16.384;2022-07-05T15:03:21;99132.22;;;21.66;46.87
55470;BME280;41334;47.872;16.384;2022-07-05T15:06:25;99133.00;;;21.51;46.80
55470;BME280;41334;47.872;16.384;2022-07-05T15:09:27;99129.50;;;21.03;47.39
55470;BME280;41334;47.872;16.384;2022-07-05T15:12:28;99126.91;;;21.24;47.17
55470;BME280;41334;47.872;16.384;2022-07-05T15:15:30;99122.53;;;21.23;47.06
55470;BME280;41334;47.872;16.384;2022-07-05T15:18:32;99121.94;;;21.15;47.45
55470;BME280;41334;47.872;16.384;2022-07-05T15:21:35;99122.97;;;21.72;47.02
55470;BME280;41334;47.872;16.384;2022-07-05T15:24:37;99121.97;;;22.04;46.54
55470;BME280;41334;47.872;16.384;2022-07-05T15:27:38;99117.34;;;22.14;46.85
55470;BME280;41334;47.872;16.384;2022-07-05T15:30:40;99111.88;;;22.35;46.91
55470;BME280;41334;47.872;16.384;2022-07-05T15:33:42;99118.97;;;22.26;46.42
55470;BME280;41334;47.872;16.384;2022-07-05T15:36:44;99115.72;;;22.29;46.79
55470;BME280;41334;47.872;16.384;2022-07-05T15:39:46;99120.88;;;22.25;47.48
55470;BME280;41334;47.872;16.384;2022-07-05T15:42:48;99120.63;;;22.11;48.07
55470;BME280;41334;47.872;16.384;2022-07-05T15:45:49;99118.72;;;22.12;48.08
55470;BME280;41334;47.872;16.384;2022-07-05T15:48:51;99117.56;;;21.77;49.29
55470;BME280;41334;47.872;16.384;2022-07-05T15:51:56;99114.31;;;21.90;49.11
55470;BME280;41334;47.872;16.384;2022-07-05T15:54:58;99104.47;;;21.79;49.53
55470;BME280;41334;47.872;16.384;2022-07-05T15:58:00;99120.94;;;21.32;50.08
55470;BME280;41334;47.872;16.384;2022-07-05T16:01:02;99100.25;;;20.88;50.90
55470;BME280;41334;47.872;16.384;2022-07-05T16:04:04;99102.69;;;20.85;51.54
55470;BME280;41334;47.872;16.384;2022-07-05T16:07:06;99102.34;;;20.71;53.14
55470;BME280;41334;47.872;16.384;2022-07-05T16:10:08;99101.06;;;20.47;54.46
55470;BME280;41334;47.872;16.384;2022-07-05T16:13:31;99105.13;;;20.12;55.68
55470;BME280;41334;47.872;16.384;2022-07-05T16:16:32;99118.97;;;20.10;55.24